Time;durP1;ratioP1;P1;durP2;ratioP2;P2;SDS_P1;SDS_P2;PMS_P1;PMS_P2;Temp;Humidity;BMP_temperature;BMP_pressure;BME280_temperature;BME280_humidity;BME280_pressure;Samples;Min_cycle;Max_cycle;Signal;HPM_P1;HPM_P2
2024/01/26 00:02:25;;;;;;;21.88;14.52;;;16.50;76.70;;;;;;5019609;28;20037;-79
2024/01/26 00:04:50;;;;;;;18.23;13.75;;;16.50;76.80;;;;;;5001832;28;20066;-80
2024/01/26 00:07:16;;;;;;;18.40;13.95;;;16.50;76.70;;;;;;4988489;28;20491;-79
2024/01/26 00:09:42;;;;;;;17.70;13.82;;;16.50;76.80;;;;;;4978430;28;20479;-79
2024/01/26 00:12:07;;;;;;;16.48;12.52;;;16.50;76.70;;;;;;5021046;28;20052;-79
2024/01/26 00:14:33;;;;;;;21.75;14.05;;;16.50;76.70;;;;;;5027505;28;20052;-79
2024/01/26 00:16:58;;;;;;;19.50;13.27;;;16.50;76.70;;;;;;5008630;28;20065;-79
2024/01/26 00:19:24;;;;;;;19.30;14.07;;;16.50;76.70;;;;;;5020430;28;20132;-79
2024/01/26 00:21:49;;;;;;;15.75;12.73;;;16.50;76.70;;;;;;5009147;28;20042;-79
2024/01/26 00:24:15;;;;;;;16.30;12.35;;;16.50;76.70;;;;;;5024895;28;20042;-79
2024/01/26 00:26:40;;;;;;;16.48;12.75;;;16.50;76.70;;;;;;5026992;28;20040;-79
2024/01/26 00:29:06;;;;;;;17.45;12.50;;;16.50;76.60;;;;;;5020982;28;20025;-78
2024/01/26 00:31:32;;;;;;;17.02;13.40;;;16.50;76.60;;;;;;5025178;28;20045;-79
2024/01/26 00:33:57;;;;;;;16.67;12.27;;;16.50;76.60;;;;;;5023909;28;20033;-80
2024/01/26 00:36:23;;;;;;;15.20;12.45;;;16.50;76.60;;;;;;5022425;28;20038;-81
2024/01/26 00:38:48;;;;;;;16.15;11.65;;;16.50;76.60;;;;;;5016538;28;20088;-80
2024/01/26 00:41:14;;;;;;;13.90;11.50;;;16.40;76.50;;;;;;5024736;28;20041;-80
2024/01/26 00:43:40;;;;;;;15.55;11.68;;;16.40;76.50;;;;;;5024506;28;20117;-81
2024/01/26 00:46:05;;;;;;;13.63;11.43;;;16.50;76.60;;;;;;5024181;28;20046;-81
2024/01/26 00:48:31;;;;;;;16.33;12.85;;;16.40;76.50;;;;;;5024851;28;20065;-80
2024/01/26 00:50:56;;;;;;;15.40;11.70;;;16.40;76.50;;;;;;5024388;28;20034;-80
2024/01/26 00:53:22;;;;;;;15.73;12.43;;;16.40;76.50;;;;;;5010423;28;20554;-82
2024/01/26 00:55:48;;;;;;;13.60;10.95;;;16.40;77.30;;;;;;4984529;28;20046;-80
2024/01/26 00:58:14;;;;;;;14.43;11.20;;;16.40;76.50;;;;;;4999913;28;20037;-79
2024/01/26 01:00:40;;;;;;;14.38;11.75;;;16.40;76.50;;;;;;5020590;28;20037;-80
2024/01/26 01:03:05;;;;;;;12.77;10.77;;;16.40;76.50;;;;;;5024402;28;20041;-80
2024/01/26 01:05:31;;;;;;;13.02;10.98;;;16.40;76.40;;;;;;5010301;28;20045;-80
2024/01/26 01:07:57;;;;;;;13.95;10.85;;;16.40;76.50;;;;;;5014148;28;20412;-80
2024/01/26 01:10:22;;;;;;;13.38;10.57;;;16.40;76.50;;;;;;5022987;28;20040;-80
2024/01/26 01:12:49;;;;;;;12.40;10.50;;;16.40;76.50;;;;;;5024204;28;20029;-80
2024/01/26 01:15:14;;;;;;;13.48;10.68;;;16.40;76.50;;;;;;5021625;28;20542;-80
2024/01/26 01:17:45;;;;;;;12.57;10.00;;;16.40;76.50;;;;;;5021935;28;20046;-80
2024/01/26 01:20:10;;;;;;;12.43;9.82;;;16.40;76.50;;;;;;5025177;28;20041;-80
2024/01/26 01:22:37;;;;;;;13.30;10.98;;;16.40;76.50;;;;;;4997041;28;20046;-80
2024/01/26 01:25:04;;;;;;;13.02;11.50;;;16.40;76.50;;;;;;5019947;28;20044;-80
2024/01/26 01:27:31;;;;;;;14.52;11.32;;;16.40;76.50;;;;;;5023749;28;20058;-80
2024/01/26 01:29:57;;;;;;;14.43;9.23;;;16.40;76.40;;;;;;5024134;28;20061;-82
2024/01/26 01:32:22;;;;;;;11.52;9.45;;;16.40;76.40;;;;;;5044453;28;20095;-80
2024/01/26 01:34:48;;;;;;;13.10;9.82;;;16.40;76.40;;;;;;5022334;28;20033;-79
2024/01/26 01:37:14;;;;;;;11.73;10.00;;;16.40;76.50;;;;;;5006800;28;20484;-80
2024/01/26 01:39:40;;;;;;;11.00;9.50;;;16.40;76.30;;;;;;4991486;28;20042;-80
2024/01/26 01:42:13;;;;;;;11.40;9.63;;;16.40;76.40;;;;;;4991634;28;20419;-79
2024/01/26 01:44:45;;;;;;;9.70;8.70;;;16.40;76.40;;;;;;5020081;28;20057;-80
2024/01/26 01:47:12;;;;;;;9.70;8.52;;;16.40;76.40;;;;;;5050572;28;20669;-80
2024/01/26 01:49:38;;;;;;;10.63;9.02;;;16.40;76.30;;;;;;5025402;28;20049;-80
2024/01/26 01:52:04;;;;;;;11.05;9.45;;;16.40;76.50;;;;;;5006963;28;20044;-80
2024/01/26 01:54:29;;;;;;;9.60;8.38;;;16.40;76.40;;;;;;5006350;28;20052;-80
2024/01/26 01:57:01;;;;;;;9.77;8.32;;;16.40;76.40;;;;;;4997317;28;20050;-81
2024/01/26 01:59:27;;;;;;;9.23;8.32;;;16.40;76.40;;;;;;4996858;28;20051;-82
2024/01/26 02:01:52;;;;;;;9.05;8.10;;;16.40;76.50;;;;;;5027803;28;20049;-82
2024/01/26 02:04:18;;;;;;;11.60;8.43;;;16.40;76.50;;;;;;5020247;28;20629;-82
2024/01/26 02:06:56;;;;;;;9.30;8.30;;;16.40;76.50;;;;;;5023905;28;20044;-81
2024/01/26 02:09:22;;;;;;;9.43;7.85;;;16.40;76.40;;;;;;5020307;28;20454;-82
2024/01/26 02:11:47;;;;;;;11.18;8.50;;;16.40;76.40;;;;;;5024340;28;20049;-81
2024/01/26 02:14:13;;;;;;;9.57;8.10;;;16.40;76.40;;;;;;5020019;28;20095;-80
2024/01/26 02:16:38;;;;;;;10.57;8.38;;;16.40;76.50;;;;;;5019925;28;20091;-81
2024/01/26 02:19:04;;;;;;;8.70;7.90;;;16.40;76.50;;;;;;5023377;28;20045;-80
2024/01/26 02:21:29;;;;;;;8.55;7.70;;;16.40;76.40;;;;;;5021580;28;20525;-80
2024/01/26 02:23:55;;;;;;;10.25;8.50;;;16.40;76.50;;;;;;5021278;28;20055;-80
2024/01/26 02:26:21;;;;;;;7.57;6.85;;;16.40;76.50;;;;;;5025722;28;20052;-79
2024/01/26 02:28:46;;;;;;;8.38;7.53;;;16.40;76.50;;;;;;5022914;28;20033;-81
2024/01/26 02:31:12;;;;;;;8.93;7.50;;;16.40;76.40;;;;;;5019963;28;20060;-80
2024/01/26 02:33:37;;;;;;;8.60;7.72;;;16.40;76.40;;;;;;5020384;28;20042;-80
2024/01/26 02:36:03;;;;;;;7.32;6.53;;;16.40;76.50;;;;;;5022117;28;20052;-80
2024/01/26 02:38:29;;;;;;;7.07;6.40;;;16.40;76.40;;;;;;5024086;28;20088;-80
2024/01/26 02:40:54;;;;;;;7.47;6.78;;;16.40;76.50;;;;;;5021512;28;20124;-80
2024/01/26 02:43:20;;;;;;;7.75;6.95;;;16.30;76.30;;;;;;5022528;28;20042;-81
2024/01/26 02:45:47;;;;;;;7.38;6.57;;;16.40;76.40;;;;;;5005443;28;20414;-81
2024/01/26 02:48:13;;;;;;;6.88;6.18;;;16.30;76.30;;;;;;5013817;28;20456;-81
2024/01/26 02:50:38;;;;;;;7.13;6.43;;;16.30;76.30;;;;;;5003794;28;20038;-81
2024/01/26 02:53:04;;;;;;;7.30;6.60;;;16.40;76.40;;;;;;5005391;28;20038;-82
2024/01/26 02:55:29;;;;;;;7.45;6.60;;;16.30;76.40;;;;;;5012187;28;20072;-84
2024/01/26 02:57:55;;;;;;;7.05;6.35;;;16.40;76.50;;;;;;5022719;28;20037;-81
2024/01/26 03:00:20;;;;;;;7.20;5.95;;;16.30;76.30;;;;;;5018806;28;20052;-81
2024/01/26 03:02:46;;;;;;;5.93;5.32;;;16.30;76.40;;;;;;5024865;28;20117;-81
2024/01/26 03:05:12;;;;;;;6.80;6.20;;;16.30;76.40;;;;;;4983801;28;20033;-80
2024/01/26 03:07:37;;;;;;;6.18;5.57;;;16.30;76.30;;;;;;5020345;28;20034;-80
2024/01/26 03:10:03;;;;;;;6.68;6.00;;;16.30;76.30;;;;;;5019996;28;20026;-79
2024/01/26 03:12:29;;;;;;;6.90;6.15;;;16.30;76.30;;;;;;5049335;28;21631;-80
2024/01/26 03:14:54;;;;;;;6.13;5.53;;;16.30;76.40;;;;;;5001988;28;20044;-81
2024/01/26 03:17:20;;;;;;;6.40;5.80;;;16.30;76.40;;;;;;5002306;28;20538;-81
2024/01/26 03:19:46;;;;;;;5.65;5.15;;;16.30;76.40;;;;;;4990027;28;20392;-80
2024/01/26 03:22:12;;;;;;;6.00;5.47;;;16.30;76.40;;;;;;4990701;28;20052;-81
2024/01/26 03:24:37;;;;;;;6.32;5.75;;;16.30;76.40;;;;;;5052957;28;20521;-82
2024/01/26 03:27:03;;;;;;;6.03;5.53;;;16.30;76.40;;;;;;5021570;28;20049;-81
2024/01/26 03:29:29;;;;;;;6.40;5.55;;;16.30;76.50;;;;;;5019904;28;20037;-81
2024/01/26 03:31:54;;;;;;;5.88;5.25;;;16.30;76.40;;;;;;5022590;28;20391;-81
2024/01/26 03:34:20;;;;;;;5.43;4.95;;;16.30;76.40;;;;;;5016954;28;20058;-82
2024/01/26 03:36:45;;;;;;;5.30;4.80;;;16.30;76.40;;;;;;5021476;28;20399;-82
2024/01/26 03:39:11;;;;;;;6.15;5.57;;;16.30;76.40;;;;;;5004288;28;20046;-81
2024/01/26 03:41:40;;;;;;;5.63;5.10;;;16.30;76.40;;;;;;5023873;28;20045;-82
2024/01/26 03:44:06;;;;;;;5.60;5.10;;;16.30;76.50;;;;;;5028786;28;22790;-82
2024/01/26 03:46:31;;;;;;;5.00;4.60;;;16.30;76.50;;;;;;5008074;28;20030;-81
2024/01/26 03:48:57;;;;;;;4.78;4.32;;;16.30;76.50;;;;;;5026475;28;20037;-82
2024/01/26 03:51:23;;;;;;;5.10;4.65;;;16.30;76.40;;;;;;5009984;28;20065;-82
2024/01/26 03:53:48;;;;;;;5.00;4.60;;;16.30;76.50;;;;;;5028047;28;20029;-83
2024/01/26 03:56:14;;;;;;;5.18;4.72;;;16.30;76.50;;;;;;5029783;28;20036;-81
2024/01/26 03:58:39;;;;;;;5.18;4.68;;;16.30;76.50;;;;;;5023998;28;20128;-81
2024/01/26 04:01:05;;;;;;;5.03;4.63;;;16.30;76.50;;;;;;5006870;28;20041;-81
2024/01/26 04:03:31;;;;;;;4.30;4.00;;;16.30;76.50;;;;;;5022686;28;20049;-82
2024/01/26 04:05:56;;;;;;;4.72;4.32;;;16.30;76.50;;;;;;5025922;28;20164;-81
2024/01/26 04:08:22;;;;;;;4.05;3.75;;;16.30;76.50;;;;;;5032522;28;20046;-81
2024/01/26 04:10:48;;;;;;;3.95;3.65;;;16.30;76.40;;;;;;5001962;28;20033;-81
2024/01/26 04:13:13;;;;;;;4.15;3.72;;;16.30;76.40;;;;;;5003565;28;20045;-80
2024/01/26 04:15:39;;;;;;;4.75;4.10;;;16.30;76.40;;;;;;5004671;28;20526;-80
2024/01/26 04:18:04;;;;;;;4.50;4.15;;;16.30;77.30;;;;;;5013757;28;20056;-80
2024/01/26 04:20:30;;;;;;;4.53;4.22;;;16.30;76.60;;;;;;5026096;28;20051;-80
2024/01/26 04:22:56;;;;;;;4.10;3.70;;;16.30;76.50;;;;;;4993919;28;20044;-80
2024/01/26 04:25:21;;;;;;;3.90;3.60;;;16.30;76.40;;;;;;5016457;28;20529;-80
2024/01/26 04:27:47;;;;;;;4.45;4.05;;;16.30;76.40;;;;;;5027838;28;20410;-80
2024/01/26 04:30:14;;;;;;;3.80;3.53;;;16.30;76.50;;;;;;5037103;28;20129;-81
2024/01/26 04:32:39;;;;;;;4.38;3.95;;;16.30;76.50;;;;;;5022913;28;20407;-80
2024/01/26 04:35:05;;;;;;;4.43;4.03;;;16.30;76.60;;;;;;5057382;28;20128;-82
2024/01/26 04:37:31;;;;;;;4.00;3.70;;;16.30;76.50;;;;;;4997230;28;20045;-82
2024/01/26 04:39:57;;;;;;;3.70;3.40;;;16.30;76.50;;;;;;5008438;28;20050;-82
2024/01/26 04:42:22;;;;;;;4.18;3.88;;;16.30;76.40;;;;;;5024739;28;20133;-82
2024/01/26 04:44:48;;;;;;;3.72;3.42;;;16.30;76.30;;;;;;5059342;28;20029;-82
2024/01/26 04:47:13;;;;;;;4.03;3.72;;;16.30;76.50;;;;;;5023332;28;20055;-82
2024/01/26 04:49:39;;;;;;;3.58;3.30;;;16.30;76.50;;;;;;5008738;28;20045;-82
2024/01/26 04:52:04;;;;;;;3.58;3.30;;;16.30;76.50;;;;;;5036640;28;20049;-82
2024/01/26 04:54:30;;;;;;;3.20;3.00;;;16.30;76.20;;;;;;5022278;28;20049;-82
2024/01/26 04:56:55;;;;;;;3.33;3.13;;;16.40;76.10;;;;;;5025661;28;20801;-81
2024/01/26 04:59:21;;;;;;;4.05;3.75;;;16.30;76.00;;;;;;5023903;28;21072;-81
2024/01/26 05:01:47;;;;;;;4.00;3.67;;;16.40;76.10;;;;;;5019890;28;20053;-82
2024/01/26 05:04:12;;;;;;;3.80;3.40;;;16.40;76.10;;;;;;5000849;28;20116;-80
2024/01/26 05:06:38;;;;;;;3.90;3.60;;;16.30;76.80;;;;;;5011536;28;20053;-81
2024/01/26 05:09:03;;;;;;;3.35;3.15;;;16.40;76.10;;;;;;5019229;28;20042;-82
2024/01/26 05:11:29;;;;;;;3.97;3.60;;;16.30;76.00;;;;;;5026178;28;20049;-81
2024/01/26 05:13:55;;;;;;;3.67;3.38;;;16.40;77.00;;;;;;5025327;28;20503;-81
2024/01/26 05:16:20;;;;;;;3.75;3.45;;;16.40;76.20;;;;;;5022748;28;20073;-81
2024/01/26 05:18:46;;;;;;;3.75;3.42;;;16.30;76.20;;;;;;5023439;28;20119;-80
2024/01/26 05:21:11;;;;;;;3.78;3.47;;;16.40;76.10;;;;;;5018009;28;20027;-83
2024/01/26 05:23:37;;;;;;;5.05;2.97;;;16.40;76.30;;;;;;5018033;28;20140;-82
2024/01/26 05:26:03;;;;;;;3.38;3.08;;;16.30;77.10;;;;;;5050329;28;20053;-83
2024/01/26 05:28:29;;;;;;;3.20;2.90;;;16.40;76.30;;;;;;5013069;28;20120;-83
2024/01/26 05:30:55;;;;;;;3.22;3.03;;;16.40;76.30;;;;;;5021475;28;20052;-82
2024/01/26 05:33:20;;;;;;;3.15;2.95;;;16.40;76.30;;;;;;5024602;28;20034;-81
2024/01/26 05:35:46;;;;;;;3.10;2.90;;;16.40;76.40;;;;;;5024346;28;20049;-80
2024/01/26 05:38:12;;;;;;;3.38;3.08;;;16.40;76.40;;;;;;5023086;28;20416;-80
2024/01/26 05:40:37;;;;;;;3.88;3.13;;;16.40;76.50;;;;;;5020392;28;20119;-80
2024/01/26 05:43:03;;;;;;;3.95;3.17;;;16.40;76.40;;;;;;5017812;28;20048;-82
2024/01/26 05:45:29;;;;;;;2.92;2.72;;;16.40;76.50;;;;;;5023631;28;20577;-82
2024/01/26 05:47:55;;;;;;;2.85;2.65;;;16.40;76.40;;;;;;5022868;28;20033;-82
2024/01/26 05:50:21;;;;;;;3.00;2.80;;;16.40;76.40;;;;;;5025564;28;20406;-82
2024/01/26 05:52:47;;;;;;;3.42;2.88;;;16.40;76.40;;;;;;5023453;28;20069;-83
2024/01/26 05:55:14;;;;;;;2.63;2.42;;;16.40;76.50;;;;;;5022462;28;20041;-83
2024/01/26 05:57:40;;;;;;;2.90;2.70;;;16.40;76.50;;;;;;5004651;28;21096;-83
2024/01/26 06:00:09;;;;;;;3.03;2.80;;;16.40;76.50;;;;;;5024993;28;20535;-82
2024/01/26 06:02:35;;;;;;;3.13;2.90;;;16.40;76.50;;;;;;5025969;28;20515;-82
2024/01/26 06:05:01;;;;;;;2.78;2.58;;;16.30;76.50;;;;;;5019967;28;20045;-82
2024/01/26 06:07:27;;;;;;;2.65;2.45;;;16.40;76.50;;;;;;5019396;28;20045;-81
2024/01/26 06:09:52;;;;;;;2.88;2.67;;;16.40;76.50;;;;;;4991082;28;20507;-81
2024/01/26 06:12:18;;;;;;;3.35;2.63;;;16.30;76.50;;;;;;5011515;28;20392;-77
2024/01/26 06:14:43;;;;;;;2.63;2.42;;;16.40;76.80;;;;;;5003991;28;20065;-78
2024/01/26 06:17:09;;;;;;;3.22;2.33;;;16.40;76.50;;;;;;4991810;28;20463;-77
2024/01/26 06:19:37;;;;;;;2.80;2.60;;;16.50;76.50;;;;;;5005428;28;20053;-77
2024/01/26 06:22:02;;;;;;;2.60;2.40;;;16.50;77.20;;;;;;5024317;28;20038;-79
2024/01/26 06:24:28;;;;;;;2.38;2.28;;;16.50;76.50;;;;;;5017904;28;20043;-78
2024/01/26 06:26:53;;;;;;;2.78;2.58;;;16.60;76.90;;;;;;5034373;28;20061;-78
2024/01/26 06:29:19;;;;;;;2.40;2.25;;;16.60;76.90;;;;;;5008575;28;20042;-78
2024/01/26 06:31:45;;;;;;;2.97;2.45;;;16.50;76.70;;;;;;4645778;28;10000112;-79
2024/01/26 06:34:10;;;;;;;2.97;2.45;;;16.50;76.80;;;;;;4997148;28;20076;-78
2024/01/26 06:36:36;;;;;;;2.70;2.55;;;16.50;76.90;;;;;;5021605;28;20418;-78
2024/01/26 06:39:01;;;;;;;2.42;2.22;;;16.50;77.00;;;;;;5022795;28;20442;-79
2024/01/26 06:41:27;;;;;;;2.35;2.20;;;16.60;77.30;;;;;;5002802;28;20526;-79
2024/01/26 06:43:53;;;;;;;2.25;2.15;;;16.60;77.70;;;;;;4659827;28;10000469;-80
2024/01/26 06:46:24;;;;;;;2.55;2.35;;;16.60;78.40;;;;;;5003885;28;20145;-79
2024/01/26 06:48:50;;;;;;;2.38;2.28;;;16.60;79.00;;;;;;5018862;28;20053;-79
2024/01/26 06:51:16;;;;;;;2.40;2.30;;;16.60;78.90;;;;;;5021016;28;20136;-79
2024/01/26 06:53:41;;;;;;;2.80;2.60;;;16.60;79.20;;;;;;5020251;28;20037;-79
2024/01/26 06:56:07;;;;;;;2.50;2.30;;;16.60;79.40;;;;;;5004750;28;20511;-79
2024/01/26 06:58:33;;;;;;;3.20;2.35;;;16.60;79.20;;;;;;5020903;28;20503;-79
2024/01/26 07:00:59;;;;;;;2.22;2.13;;;16.60;79.40;;;;;;4987933;28;20041;-79
2024/01/26 07:03:24;;;;;;;2.70;2.50;;;16.60;79.70;;;;;;4979836;28;20060;-79
2024/01/26 07:05:50;;;;;;;2.20;2.10;;;16.60;79.80;;;;;;5000361;28;20041;-79
2024/01/26 07:08:16;;;;;;;2.05;1.95;;;16.60;79.20;;;;;;4983846;28;20045;-80
2024/01/26 07:10:41;;;;;;;1.98;1.88;;;16.60;79.60;;;;;;4999285;28;20095;-78
2024/01/26 07:13:07;;;;;;;2.58;2.38;;;16.60;79.10;;;;;;5032400;28;20091;-79
2024/01/26 07:15:33;;;;;;;2.30;2.10;;;16.70;78.90;;;;;;5019324;28;20140;-78
2024/01/26 07:17:58;;;;;;;2.20;2.10;;;16.70;78.60;;;;;;5018366;28;20049;-79
2024/01/26 07:20:24;;;;;;;1.80;1.70;;;16.70;78.40;;;;;;4986554;28;20042;-79
2024/01/26 07:22:50;;;;;;;2.22;2.03;;;16.70;78.40;;;;;;4999698;28;20046;-79
2024/01/26 07:25:19;;;;;;;2.53;2.35;;;16.60;78.30;;;;;;5026645;28;20041;-79
2024/01/26 07:27:47;;;;;;;2.20;2.00;;;16.70;78.30;;;;;;5016965;28;20061;-79
2024/01/26 07:30:14;;;;;;;2.05;1.95;;;16.60;78.10;;;;;;5011696;28;20108;-79
2024/01/26 07:32:40;;;;;;;2.00;1.90;;;16.60;78.10;;;;;;5017101;28;20084;-79
2024/01/26 07:35:06;;;;;;;2.20;1.85;;;16.60;78.10;;;;;;5033802;28;20128;-79
2024/01/26 07:37:32;;;;;;;2.55;1.92;;;16.60;78.10;;;;;;5014434;28;20125;-79
2024/01/26 07:39:58;;;;;;;2.15;1.95;;;16.70;78.10;;;;;;5018658;28;20053;-79
2024/01/26 07:42:23;;;;;;;1.83;1.73;;;16.60;77.80;;;;;;4985620;28;20045;-79
2024/01/26 07:44:49;;;;;;;1.48;1.38;;;16.60;77.70;;;;;;4999403;28;20475;-79
2024/01/26 07:47:14;;;;;;;1.85;1.75;;;16.60;77.60;;;;;;5022306;28;20128;-79
2024/01/26 07:49:40;;;;;;;1.85;1.75;;;16.60;77.60;;;;;;5034230;28;20073;-79
2024/01/26 07:52:06;;;;;;;1.65;1.55;;;16.60;77.40;;;;;;5019330;28;20080;-80
2024/01/26 07:54:31;;;;;;;1.73;1.63;;;16.60;77.20;;;;;;5017996;28;20041;-80
2024/01/26 07:56:57;;;;;;;1.58;1.48;;;16.60;77.20;;;;;;5031529;28;20095;-80
2024/01/26 07:59:22;;;;;;;1.67;1.58;;;16.60;77.00;;;;;;5007552;28;20107;-79
2024/01/26 08:01:48;;;;;;;1.58;1.48;;;16.70;77.00;;;;;;5016124;28;20049;-78
2024/01/26 08:04:14;;;;;;;1.85;1.75;;;16.60;76.80;;;;;;5018791;28;20065;-77
2024/01/26 08:06:40;;;;;;;16.40;2.55;;;16.70;76.80;;;;;;5020675;28;20052;-79
2024/01/26 08:09:10;;;;;;;17.98;3.10;;;16.70;76.90;;;;;;5034812;28;20587;-79
2024/01/26 08:11:36;;;;;;;15.00;2.60;;;16.60;76.70;;;;;;5022483;28;20042;-79
2024/01/26 08:14:02;;;;;;;9.13;2.63;;;16.70;76.80;;;;;;4994996;28;20054;-78
2024/01/26 08:16:28;;;;;;;3.45;1.70;;;16.70;76.60;;;;;;5019205;28;20061;-79
2024/01/26 08:18:53;;;;;;;5.25;2.13;;;16.60;77.50;;;;;;5023764;28;20123;-78
2024/01/26 08:21:19;;;;;;;5.63;1.80;;;16.60;76.80;;;;;;5019435;28;20038;-78
2024/01/26 08:23:46;;;;;;;3.92;1.40;;;16.70;76.80;;;;;;4997012;28;20060;-79
2024/01/26 08:26:12;;;;;;;5.75;1.83;;;16.60;76.80;;;;;;5019530;28;20091;-79
2024/01/26 08:28:38;;;;;;;4.03;1.83;;;16.60;76.50;;;;;;4990783;28;20042;-79
2024/01/26 08:31:05;;;;;;;7.22;1.40;;;16.60;76.50;;;;;;5021970;28;20311;-79
2024/01/26 08:33:30;;;;;;;1.75;1.40;;;16.60;76.60;;;;;;4986001;28;20030;-79
2024/01/26 08:35:56;;;;;;;9.50;1.42;;;16.60;76.60;;;;;;5022554;28;20563;-79
2024/01/26 08:38:21;;;;;;;3.20;1.50;;;16.60;76.60;;;;;;5025373;28;20533;-80
2024/01/26 08:40:47;;;;;;;4.32;1.70;;;16.60;76.50;;;;;;5026506;28;20497;-80
2024/01/26 08:43:12;;;;;;;3.17;1.50;;;16.60;76.40;;;;;;5023135;28;20053;-80
2024/01/26 08:45:38;;;;;;;3.05;1.40;;;16.60;76.40;;;;;;5024254;28;20029;-80
2024/01/26 08:48:04;;;;;;;2.50;1.58;;;16.60;77.10;;;;;;5023757;28;20531;-79
2024/01/26 08:50:30;;;;;;;3.50;1.70;;;16.60;77.60;;;;;;5027214;28;20049;-80
2024/01/26 08:52:55;;;;;;;1.70;1.60;;;16.60;77.40;;;;;;5024843;28;20049;-80
2024/01/26 08:55:21;;;;;;;2.53;1.38;;;16.60;77.20;;;;;;5023783;28;20033;-79
2024/01/26 08:57:48;;;;;;;1.77;1.65;;;16.60;76.90;;;;;;5022284;28;20051;-80
2024/01/26 09:00:15;;;;;;;3.28;1.85;;;16.60;77.00;;;;;;5017090;28;20108;-80
2024/01/26 09:02:40;;;;;;;4.00;1.55;;;16.70;77.10;;;;;;5054618;28;20068;-80
2024/01/26 09:05:06;;;;;;;37.70;15.75;;;16.70;77.10;;;;;;5026034;28;20136;-80
2024/01/26 09:07:32;;;;;;;1.88;1.73;;;16.70;77.20;;;;;;5023495;28;20184;-80
2024/01/26 09:09:58;;;;;;;2.58;1.40;;;16.70;77.10;;;;;;5021502;28;20041;-80
2024/01/26 09:12:23;;;;;;;1.45;1.35;;;16.80;76.90;;;;;;5024425;28;20044;-79
2024/01/26 09:14:49;;;;;;;2.08;1.50;;;16.80;77.10;;;;;;5023313;28;20672;-79
2024/01/26 09:17:15;;;;;;;1.55;1.45;;;16.80;77.30;;;;;;5024031;28;20510;-82
2024/01/26 09:19:41;;;;;;;1.42;1.33;;;16.80;77.20;;;;;;5024911;28;20527;-80
2024/01/26 09:22:08;;;;;;;1.73;1.30;;;16.70;77.30;;;;;;5000628;28;20047;-82
2024/01/26 09:24:34;;;;;;;1.40;1.30;;;16.80;77.50;;;;;;5023246;28;20041;-80
2024/01/26 09:27:00;;;;;;;2.25;1.30;;;16.90;77.20;;;;;;5006453;28;20780;-80
2024/01/26 09:29:26;;;;;;;1.48;1.38;;;16.80;77.00;;;;;;5010611;28;20037;-79
2024/01/26 09:31:54;;;;;;;2.35;1.13;;;16.90;77.00;;;;;;4997701;28;20049;-80
2024/01/26 09:34:20;;;;;;;1.23;1.10;;;16.90;76.90;;;;;;5009912;28;20107;-79
2024/01/26 09:36:45;;;;;;;1.45;1.35;;;16.80;77.20;;;;;;4999879;28;20447;-80
2024/01/26 09:39:11;;;;;;;1.33;1.15;;;16.80;76.90;;;;;;5023429;28;20933;-81
2024/01/26 09:41:37;;;;;;;3.33;1.13;;;16.80;76.90;;;;;;5025243;28;20049;-81
2024/01/26 09:44:03;;;;;;;1.30;1.20;;;16.90;76.90;;;;;;5024542;28;20050;-81
2024/01/26 09:46:33;;;;;;;2.13;1.00;;;16.90;76.60;;;;;;5005483;28;20402;-82
2024/01/26 09:48:58;;;;;;;1.05;0.93;;;16.90;76.40;;;;;;5021556;28;20060;-82
2024/01/26 09:51:27;;;;;;;1.15;1.05;;;16.90;76.60;;;;;;5007225;28;20041;-80
2024/01/26 09:53:56;;;;;;;2.15;1.40;;;16.90;76.40;;;;;;4998782;28;20038;-80
2024/01/26 09:56:21;;;;;;;3.88;1.20;;;16.90;76.50;;;;;;5008819;28;20052;-79
2024/01/26 09:58:47;;;;;;;1.23;1.10;;;16.90;76.50;;;;;;5007451;28;20042;-82
2024/01/26 10:01:13;;;;;;;2.28;1.25;;;16.90;76.50;;;;;;5024226;28;20038;-80
2024/01/26 10:03:38;;;;;;;1.10;1.00;;;16.90;76.40;;;;;;4991932;28;20037;-80
2024/01/26 10:06:04;;;;;;;1.67;1.38;;;16.90;76.20;;;;;;4987397;28;20839;-80
2024/01/26 10:08:39;;;;;;;1.40;1.30;;;16.80;76.30;;;;;;5025392;28;20045;-81
2024/01/26 10:11:05;;;;;;;2.15;1.55;;;16.80;76.50;;;;;;5011379;28;20168;-80
2024/01/26 10:13:31;;;;;;;1.48;1.20;;;16.80;76.30;;;;;;5009788;28;20399;-81
2024/01/26 10:16:07;;;;;;;1.60;1.10;;;16.80;76.30;;;;;;4976602;28;20038;-81
2024/01/26 10:18:39;;;;;;;1.30;1.10;;;16.80;76.00;;;;;;5017731;28;20052;-81
2024/01/26 10:21:05;;;;;;;2.95;1.25;;;16.80;76.10;;;;;;5024977;28;20095;-80
2024/01/26 10:23:30;;;;;;;1.67;1.10;;;16.80;76.20;;;;;;5022853;28;20444;-80
2024/01/26 10:25:56;;;;;;;2.55;0.88;;;16.80;76.10;;;;;;5005536;28;20442;-79
2024/01/26 10:28:22;;;;;;;1.60;1.00;;;16.80;76.00;;;;;;5007822;28;20044;-80
2024/01/26 10:30:47;;;;;;;1.63;1.50;;;16.80;76.00;;;;;;5019296;28;20050;-79
2024/01/26 10:33:13;;;;;;;1.88;1.25;;;16.80;76.00;;;;;;5007549;28;20041;-80
2024/01/26 10:35:44;;;;;;;2.40;0.95;;;16.80;76.70;;;;;;5022480;28;20068;-79
2024/01/26 10:38:10;;;;;;;1.70;1.20;;;16.80;75.90;;;;;;5023834;28;20459;-80
2024/01/26 10:40:36;;;;;;;1.60;1.42;;;16.80;75.90;;;;;;5005024;28;20054;-80
2024/01/26 10:43:02;;;;;;;1.70;1.10;;;16.80;76.00;;;;;;4991268;28;20057;-80
2024/01/26 10:45:27;;;;;;;3.53;1.15;;;16.80;76.00;;;;;;5002607;28;20053;-80
2024/01/26 10:47:53;;;;;;;3.53;1.33;;;16.80;75.90;;;;;;4996804;28;20495;-80
2024/01/26 10:50:19;;;;;;;1.25;0.98;;;16.80;75.90;;;;;;5007834;28;20042;-80
2024/01/26 10:52:45;;;;;;;2.15;1.27;;;16.80;75.90;;;;;;4998498;28;20530;-80
2024/01/26 10:55:11;;;;;;;1.30;1.08;;;16.80;75.80;;;;;;4990668;28;20080;-79
2024/01/26 10:57:36;;;;;;;1.67;1.10;;;16.80;75.90;;;;;;4998501;28;20104;-79
2024/01/26 11:00:04;;;;;;;1.05;0.85;;;16.80;75.50;;;;;;4998914;28;20158;-79
2024/01/26 11:02:34;;;;;;;1.10;1.00;;;16.80;75.50;;;;;;4988335;28;20535;-81
2024/01/26 11:05:03;;;;;;;1.42;0.80;;;16.80;75.50;;;;;;5005180;28;20137;-80
2024/01/26 11:07:30;;;;;;;2.35;1.13;;;16.90;75.30;;;;;;4999812;28;20538;-79
2024/01/26 11:10:04;;;;;;;1.42;1.10;;;16.90;75.10;;;;;;5000615;28;20064;-80
2024/01/26 11:12:32;;;;;;;2.28;0.90;;;16.90;75.20;;;;;;5017798;28;20483;-80
2024/01/26 11:15:13;;;;;;;1.20;1.10;;;16.90;75.10;;;;;;4984828;28;20042;-79
2024/01/26 11:17:49;;;;;;;2.22;1.10;;;16.90;75.10;;;;;;5002104;28;20415;-79
2024/01/26 11:20:15;;;;;;;1.45;1.27;;;17.00;75.00;;;;;;5021512;28;20056;-80
2024/01/26 11:22:42;;;;;;;1.10;1.00;;;16.90;74.80;;;;;;5020772;28;20050;-80
2024/01/26 11:25:07;;;;;;;1.77;1.13;;;17.00;74.80;;;;;;5006867;28;20503;-80
2024/01/26 11:27:33;;;;;;;2.53;1.50;;;17.00;74.70;;;;;;5022867;28;20053;-81
2024/01/26 11:29:58;;;;;;;1.45;1.10;;;16.90;74.80;;;;;;5019842;28;20119;-80
2024/01/26 11:32:24;;;;;;;1.15;1.05;;;17.00;74.90;;;;;;5024016;28;20068;-80
2024/01/26 11:34:59;;;;;;;1.40;1.10;;;17.00;74.50;;;;;;5021962;28;21792;-80
2024/01/26 11:37:26;;;;;;;2.65;1.33;;;17.10;74.20;;;;;;4980363;28;20477;-81
2024/01/26 11:39:52;;;;;;;1.60;1.50;;;17.10;74.00;;;;;;4988611;28;20057;-80
2024/01/26 11:42:18;;;;;;;1.70;1.40;;;17.10;73.90;;;;;;5019305;28;20113;-80
2024/01/26 11:44:49;;;;;;;1.73;1.63;;;17.10;73.80;;;;;;5054857;28;20034;-80
2024/01/26 11:47:15;;;;;;;3.42;1.50;;;17.10;73.70;;;;;;5015963;28;20038;-80
2024/01/26 11:49:40;;;;;;;2.08;1.60;;;17.10;73.60;;;;;;5015851;28;20032;-80
2024/01/26 11:52:06;;;;;;;2.17;1.30;;;17.10;73.70;;;;;;5024931;28;20396;-80
2024/01/26 11:54:32;;;;;;;1.58;1.30;;;17.10;73.50;;;;;;5021102;28;20033;-80
2024/01/26 11:56:58;;;;;;;3.50;1.17;;;17.10;73.40;;;;;;5010135;28;20496;-80
2024/01/26 11:59:24;;;;;;;2.63;1.52;;;17.10;73.30;;;;;;5003039;28;20109;-80
2024/01/26 12:01:49;;;;;;;2.45;1.73;;;17.20;73.30;;;;;;5001403;28;20529;-80
2024/01/26 12:04:16;;;;;;;1.75;1.45;;;17.10;73.20;;;;;;5018303;28;20051;-80
2024/01/26 12:06:42;;;;;;;1.88;1.42;;;17.10;73.00;;;;;;5026142;28;20495;-80
2024/01/26 12:09:09;;;;;;;3.60;1.83;;;17.20;72.90;;;;;;5019527;28;20041;-80
2024/01/26 12:11:35;;;;;;;1.55;1.35;;;17.20;72.90;;;;;;5004411;28;20053;-81
2024/01/26 12:14:00;;;;;;;1.98;1.65;;;17.20;72.80;;;;;;5021565;28;20037;-80
2024/01/26 12:16:29;;;;;;;1.73;1.63;;;17.20;72.80;;;;;;4991988;28;20100;-80
2024/01/26 12:18:55;;;;;;;2.80;1.60;;;17.20;72.70;;;;;;4992933;28;20096;-80
2024/01/26 12:21:20;;;;;;;2.33;2.05;;;17.30;72.70;;;;;;5042457;28;20045;-80
2024/01/26 12:23:50;;;;;;;1.63;1.40;;;17.30;72.60;;;;;;5056287;28;20038;-80
2024/01/26 12:26:15;;;;;;;1.60;1.50;;;17.30;72.50;;;;;;5024413;28;20071;-80
2024/01/26 12:28:41;;;;;;;2.33;2.00;;;17.30;72.40;;;;;;5002655;28;20065;-80
2024/01/26 12:31:06;;;;;;;2.22;2.00;;;17.30;72.40;;;;;;5002675;28;20057;-80
2024/01/26 12:33:36;;;;;;;2.50;2.05;;;17.30;72.40;;;;;;4984571;28;20133;-80
2024/01/26 12:36:01;;;;;;;3.05;2.00;;;17.30;72.30;;;;;;5023595;28;20041;-80
2024/01/26 12:38:28;;;;;;;2.55;2.10;;;17.30;72.10;;;;;;5027301;28;20470;-80